createdAt,value
2019-04-05T00:03:18.234Z,99988.25
2019-04-05T00:08:21.440Z,99997.31
2019-04-05T00:13:24.747Z,99994.54
2019-04-05T00:18:27.734Z,100000.31
2019-04-05T00:23:31.023Z,99994.41
2019-04-05T00:28:34.380Z,99994.37
2019-04-05T00:33:37.994Z,99991.55
2019-04-05T00:38:40.486Z,99998.14
2019-04-05T00:43:43.146Z,99988.86
2019-04-05T00:48:46.351Z,100004.45
2019-04-05T00:53:49.714Z,100002.94
2019-04-05T00:58:52.933Z,100016.36
2019-04-05T01:03:55.823Z,100009.56
2019-04-05T01:08:59.029Z,100008.69
2019-04-05T01:14:04.063Z,100011.08
2019-04-05T01:19:07.975Z,100016.64
2019-04-05T01:24:12.649Z,100019.03
2019-04-05T01:29:17.959Z,100012.69
2019-04-05T01:34:20.892Z,100005.55
2019-04-05T01:39:24.157Z,99999.97
2019-04-05T01:44:27.735Z,100006.73
2019-04-05T01:49:30.620Z,100009.28
2019-04-05T01:54:33.555Z,100010.02
2019-04-05T01:59:36.153Z,100017.97
2019-04-05T02:04:38.676Z,100011.72
2019-04-05T02:09:41.662Z,100002.72
2019-04-05T02:14:45.169Z,100009.44
2019-04-05T02:19:48.389Z,100010.17
2019-04-05T02:24:51.604Z,100007.66
2019-04-05T02:29:54.179Z,100006.93
2019-04-05T02:34:57.456Z,100000.58
2019-04-05T02:39:59.939Z,100005.10
2019-04-05T02:45:03.075Z,99997.64
2019-04-05T02:50:07.259Z,100005.79
2019-04-05T02:55:11.564Z,100001.78
2019-04-05T03:00:14.721Z,100001.58
2019-04-05T03:05:20.316Z,99995.80
2019-04-05T03:11:00.355Z,100011.66
2019-04-05T03:16:06.583Z,100011.80
2019-04-05T03:21:11.272Z,100012.50
2019-04-05T03:26:19.241Z,100021.13
2019-04-05T03:31:25.090Z,100024.88
2019-04-05T03:36:28.086Z,100036.50
2019-04-05T03:41:31.921Z,100022.95
2019-04-05T03:46:34.949Z,100022.81
2019-04-05T03:51:38.197Z,100023.98
2019-04-05T03:56:42.323Z,100000.99
2019-04-05T04:01:45.493Z,99997.20
2019-04-05T04:06:49.424Z,100003.08
2019-04-05T04:11:53.144Z,100001.73
2019-04-05T04:17:11.317Z,99992.94
2019-04-05T04:22:19.430Z,100003.08
2019-04-05T04:27:23.426Z,99996.76
2019-04-05T04:32:26.877Z,99998.93
2019-04-05T04:37:29.569Z,100002.80
2019-04-05T04:42:32.708Z,100012.79
2019-04-05T04:47:35.986Z,100011.14
2019-04-05T04:52:40.086Z,100020.02
2019-04-05T04:57:42.974Z,100021.75
2019-04-05T05:02:46.050Z,100023.78
2019-04-05T05:07:49.320Z,100038.27
2019-04-05T05:12:53.071Z,100048.98
2019-04-05T05:17:58.864Z,100067.18
2019-04-05T05:23:01.290Z,100089.95
2019-04-05T05:28:04.892Z,100086.41
2019-04-05T05:33:08.079Z,100110.49
2019-04-05T05:38:11.272Z,100108.05
2019-04-05T05:43:14.577Z,100109.38
2019-04-05T05:48:18.406Z,100110.95
2019-04-05T05:53:21.710Z,100102.03
2019-04-05T05:58:25.891Z,100114.30
2019-04-05T06:03:29.815Z,100092.76
2019-04-05T06:08:33.266Z,100113.05
2019-04-05T06:13:36.782Z,100114.48
2019-04-05T06:18:40.022Z,100118.13
2019-04-05T06:23:42.898Z,100128.30
2019-04-05T06:28:46.242Z,100117.30
2019-04-05T06:33:49.426Z,100119.52
2019-04-05T06:38:52.447Z,100119.89
2019-04-05T06:43:55.945Z,100123.44
2019-04-05T06:48:59.174Z,100127.73
2019-04-05T06:54:03.465Z,100150.20
2019-04-05T06:59:06.625Z,100156.72
2019-04-05T07:04:10.230Z,100160.34
2019-04-05T07:09:12.830Z,100155.94
2019-04-05T07:14:15.697Z,100154.59
2019-04-05T07:19:18.699Z,100170.91
2019-04-05T07:24:21.961Z,100173.58
2019-04-05T07:29:24.750Z,100179.58
2019-04-05T07:34:29.495Z,100176.11
2019-04-05T07:39:35.036Z,100185.67
2019-04-05T07:44:37.920Z,100181.38
2019-04-05T07:49:43.578Z,100175.19
2019-04-05T07:54:46.432Z,100179.00
2019-04-05T07:59:49.670Z,100179.60
2019-04-05T08:04:54.604Z,100180.98
2019-04-05T08:09:57.865Z,100167.03
2019-04-05T08:15:01.314Z,100165.77
2019-04-05T08:20:04.369Z,100161.19
2019-04-05T08:25:07.956Z,100163.20
2019-04-05T08:30:11.365Z,100167.20
2019-04-05T08:35:14.884Z,100175.72
2019-04-05T08:40:17.986Z,100189.63
2019-04-05T08:45:20.558Z,100195.84
2019-04-05T08:50:23.495Z,100201.77
2019-04-05T08:55:26.149Z,100203.95
2019-04-05T09:00:29.496Z,100189.66
2019-04-05T09:05:33.538Z,100193.45
2019-04-05T09:10:36.841Z,100191.24
2019-04-05T09:15:39.629Z,100201.41
2019-04-05T09:20:43.007Z,100201.38
2019-04-05T09:25:46.251Z,100200.03
2019-04-05T09:30:51.886Z,100196.16
2019-04-05T09:35:54.956Z,100197.78
2019-04-05T09:40:58.199Z,100198.80
2019-04-05T09:46:01.160Z,100192.25
2019-04-05T09:51:07.123Z,100199.70
2019-04-05T09:56:09.890Z,100188.81
2019-04-05T10:01:13.352Z,100199.70
2019-04-05T10:06:16.254Z,100191.44
2019-04-05T10:11:19.159Z,100194.03
2019-04-05T10:16:22.053Z,100205.86
2019-04-05T10:21:25.548Z,100211.05
2019-04-05T10:26:29.111Z,100213.33
2019-04-05T10:31:32.307Z,100220.68
2019-04-05T10:36:35.514Z,100211.52
2019-04-05T10:41:38.741Z,100210.59
2019-04-05T10:46:41.281Z,100213.51
2019-04-05T10:51:44.012Z,100199.95
2019-04-05T10:56:46.872Z,100201.52
2019-04-05T11:01:50.063Z,100201.67
2019-04-05T11:06:53.269Z,100205.47
2019-04-05T11:11:56.233Z,100209.52
2019-04-05T11:16:59.457Z,100200.72
2019-04-05T11:22:02.868Z,100199.67
2019-04-05T11:27:06.841Z,100195.06
2019-04-05T11:32:10.498Z,100197.06
2019-04-05T11:37:13.862Z,100203.09
2019-04-05T11:42:19.365Z,100202.25
2019-04-05T11:47:22.621Z,100200.50
2019-04-05T11:52:25.461Z,100202.19
2019-04-05T11:57:28.394Z,100211.93
2019-04-05T12:02:43.902Z,100215.70
2019-04-05T12:07:47.386Z,100213.88
2019-04-05T12:12:50.938Z,100210.66
2019-04-05T12:17:54.561Z,100219.03
2019-04-05T12:22:57.057Z,100214.22
2019-04-05T12:28:06.338Z,100219.06
2019-04-05T12:33:13.665Z,100231.69
2019-04-05T12:38:10.581Z,100221.31
2019-04-05T12:43:14.324Z,100213.30
2019-04-05T12:48:17.607Z,100209.77
2019-04-05T12:53:20.504Z,100203.69
2019-04-05T12:58:25.892Z,100199.00
2019-04-05T13:03:29.148Z,100198.96
2019-04-05T13:08:32.598Z,100202.76
2019-04-05T13:13:35.763Z,100205.41
2019-04-05T13:18:38.744Z,100200.66
2019-04-05T13:23:42.044Z,100202.27
2019-04-05T13:28:46.474Z,100193.75
2019-04-05T13:33:54.342Z,100194.39
2019-04-05T13:38:55.445Z,100189.51
2019-04-05T13:44:01.240Z,100196.22
2019-04-05T13:49:03.494Z,100195.66
2019-04-05T13:54:08.552Z,100195.84
2019-04-05T13:59:11.778Z,100196.64
2019-04-05T14:04:17.052Z,100197.81
2019-04-05T14:09:20.080Z,100208.84
2019-04-05T14:14:23.247Z,100197.80
2019-04-05T14:19:28.809Z,100198.34
2019-04-05T14:24:31.799Z,100198.73
2019-04-05T14:29:35.532Z,100201.53
2019-04-05T14:34:39.093Z,100206.91
2019-04-05T14:39:42.151Z,100209.20
2019-04-05T14:44:45.677Z,100219.47
2019-04-05T14:49:48.882Z,100216.56
2019-04-05T14:54:52.298Z,100217.30
2019-04-05T14:59:54.959Z,100219.34
2019-04-05T15:04:58.248Z,100214.13
2019-04-05T15:10:03.728Z,100215.67
2019-04-05T15:15:07.098Z,100212.86
2019-04-05T15:20:10.716Z,100211.59
2019-04-05T15:25:16.653Z,100205.20
2019-04-05T15:30:19.484Z,100206.66
2019-04-05T15:35:22.987Z,100214.38
2019-04-05T15:40:26.355Z,100225.26
2019-04-05T15:45:29.532Z,100220.42
2019-04-05T15:50:33.859Z,100228.23
2019-04-05T15:55:37.069Z,100225.89
2019-04-05T16:00:42.454Z,100224.52
2019-04-05T16:05:46.232Z,100223.50
2019-04-05T16:10:49.166Z,100221.33
2019-04-05T16:15:52.369Z,100214.95
2019-04-05T16:20:55.502Z,100215.16
2019-04-05T16:25:59.063Z,100229.42
2019-04-05T16:31:02.049Z,100232.41
2019-04-05T16:36:05.623Z,100241.58
2019-04-05T16:41:09.165Z,100254.59
2019-04-05T16:46:12.751Z,100253.70
2019-04-05T16:51:16.070Z,100256.02
2019-04-05T16:56:19.132Z,100255.80
2019-04-05T17:01:27.215Z,100258.69
2019-04-05T17:06:27.631Z,100263.22
2019-04-05T17:11:30.206Z,100276.73
2019-04-05T17:16:33.447Z,100271.63
2019-04-05T17:21:36.941Z,100272.70
2019-04-05T17:26:39.836Z,100271.84
2019-04-05T17:31:43.190Z,100272.30
2019-04-05T17:36:46.513Z,100281.17
2019-04-05T17:41:49.104Z,100292.03
2019-04-05T17:46:52.064Z,100289.68
2019-04-05T17:51:55.302Z,100295.73
2019-04-05T17:56:59.699Z,100296.36
2019-04-05T18:02:03.252Z,100298.49
2019-04-05T18:07:06.184Z,100310.44
2019-04-05T18:12:09.158Z,100309.05
2019-04-05T18:17:12.408Z,100320.45
2019-04-05T18:22:15.389Z,100318.66
2019-04-05T18:27:19.003Z,100324.16
2019-04-05T18:32:22.243Z,100323.42
2019-04-05T18:37:25.547Z,100328.64
2019-04-05T18:42:28.455Z,100336.44
2019-04-05T18:47:31.855Z,100350.21
2019-04-05T18:52:34.760Z,100355.23
2019-04-05T18:57:38.439Z,100360.61
2019-04-05T19:02:43.203Z,100377.34
2019-04-05T19:07:47.061Z,100385.42
2019-04-05T19:12:55.270Z,100378.77
2019-04-05T19:17:58.146Z,100371.75
2019-04-05T19:23:02.492Z,100366.55
2019-04-05T19:28:09.163Z,100363.46
2019-04-05T19:48:37.802Z,100391.28
2019-04-05T19:53:41.993Z,100401.89
2019-04-05T19:58:45.652Z,100397.97
2019-04-05T20:03:52.852Z,100408.15
2019-04-05T20:08:56.668Z,100410.37
2019-04-05T20:14:00.338Z,100407.44
2019-04-05T20:19:04.238Z,100419.77
2019-04-05T20:24:14.149Z,100418.52
2019-04-05T20:29:13.265Z,100422.11
2019-04-05T20:34:16.877Z,100429.52
2019-04-05T20:39:19.950Z,100424.61
2019-04-05T20:44:23.016Z,100428.62
2019-04-05T20:49:26.273Z,100438.55
2019-04-05T20:54:29.594Z,100439.59
2019-04-05T20:59:33.218Z,100439.81
2019-04-05T21:04:36.516Z,100454.86
2019-04-05T21:09:39.831Z,100449.52
2019-04-05T21:14:43.561Z,100453.06
2019-04-05T21:19:46.169Z,100455.45
2019-04-05T21:24:49.565Z,100460.42
2019-04-05T21:29:52.922Z,100475.34
2019-04-05T21:34:55.896Z,100477.76
2019-04-05T21:39:59.436Z,100488.18
2019-04-05T21:45:02.732Z,100490.58
2019-04-05T21:50:08.429Z,100495.39
2019-04-05T21:55:10.990Z,100504.85
2019-04-05T22:00:22.214Z,100505.04
2019-04-05T22:05:25.508Z,100505.27
2019-04-05T22:10:29.388Z,100505.47
2019-04-05T22:15:32.690Z,100508.55
2019-04-05T22:20:36.919Z,100517.70
2019-04-05T22:25:39.895Z,100510.39
2019-04-05T22:30:43.685Z,100520.15
2019-04-05T22:35:46.607Z,100516.80
2019-04-05T22:40:49.294Z,100519.36
2019-04-05T22:45:52.511Z,100525.95
2019-04-05T22:50:56.100Z,100523.23
2019-04-05T22:55:59.288Z,100535.15
2019-04-05T23:01:02.558Z,100527.70
2019-04-05T23:06:05.749Z,100525.95
2019-04-05T23:11:09.090Z,100524.34
2019-04-05T23:16:12.297Z,100523.28
2019-04-05T23:21:15.462Z,100520.49
2019-04-05T23:26:18.685Z,100527.80
2019-04-05T23:31:21.919Z,100536.58
2019-04-05T23:36:25.135Z,100522.22
2019-04-05T23:41:27.879Z,100524.87
2019-04-05T23:46:30.793Z,100526.88
2019-04-05T23:51:34.136Z,100525.70
2019-04-05T23:56:37.339Z,100524.09
